createdAt,value
2018-02-07T12:32:07.764Z,26.65
2018-02-07T12:34:36.094Z,29.52
2018-02-07T12:37:04.422Z,30.10
2018-02-07T12:39:32.737Z,27.73
2018-02-07T12:42:01.299Z,25.40
2018-02-07T12:44:32.010Z,26.67
2018-02-07T12:47:00.340Z,26.02
2018-02-07T12:49:29.022Z,28.38
2018-02-07T12:51:57.454Z,27.62
2018-02-07T12:54:25.964Z,28.23
2018-02-07T12:56:55.031Z,28.83
2018-02-07T12:59:23.356Z,27.17
2018-02-07T13:01:51.937Z,27.80
2018-02-07T13:04:20.230Z,29.37
2018-02-07T13:06:49.013Z,29.63
2018-02-07T13:09:18.069Z,26.60
2018-02-07T13:11:47.312Z,27.80
2018-02-07T13:14:15.681Z,27.62
2018-02-07T13:16:44.028Z,27.83
2018-02-07T13:19:12.361Z,28.75
2018-02-07T13:21:41.470Z,29.92
2018-02-07T13:24:09.901Z,26.98
2018-02-07T13:26:38.217Z,28.85
2018-02-07T13:29:06.698Z,28.70
2018-02-07T13:31:35.253Z,29.15
2018-02-07T13:34:03.612Z,30.10
2018-02-07T13:36:32.152Z,26.85
2018-02-07T13:39:01.257Z,28.45
2018-02-07T13:41:29.995Z,28.40
2018-02-07T13:43:58.323Z,29.65
2018-02-07T13:46:27.448Z,28.15
2018-02-07T13:48:55.783Z,29.40
2018-02-07T13:51:25.109Z,27.90
2018-02-07T13:53:53.420Z,29.17
2018-02-07T13:56:21.771Z,30.12
2018-02-07T13:58:50.081Z,28.40
2018-02-07T14:01:18.407Z,27.85
2018-02-07T14:03:46.739Z,28.95
2018-02-07T14:06:16.874Z,28.73
2018-02-07T14:08:46.004Z,29.02
2018-02-07T14:11:14.351Z,27.45
2018-02-07T14:13:43.454Z,28.12
2018-02-07T14:16:12.797Z,28.25
2018-02-07T14:18:41.290Z,28.70
2018-02-07T14:21:09.623Z,27.20
2018-02-07T14:23:38.103Z,26.58
2018-02-07T14:26:06.612Z,28.38
2018-02-07T14:28:35.005Z,27.80
2018-02-07T14:31:03.312Z,26.85
2018-02-07T14:33:32.443Z,27.70
2018-02-07T14:36:00.747Z,27.87
2018-02-07T14:38:29.918Z,28.17
2018-02-07T14:40:58.290Z,29.77
2018-02-07T14:43:27.477Z,29.02
2018-02-07T14:45:55.839Z,28.80
2018-02-07T14:48:24.923Z,29.45
2018-02-07T14:50:54.419Z,27.95
2018-02-07T14:53:23.659Z,27.33
2018-02-07T14:55:52.140Z,28.73
2018-02-07T14:58:20.575Z,25.67
2018-02-07T15:00:49.762Z,27.92
2018-02-07T15:03:18.089Z,26.98
2018-02-07T15:05:49.500Z,25.20
2018-02-07T15:08:17.967Z,26.27
2018-02-07T15:10:46.295Z,27.33
2018-02-07T15:13:14.776Z,25.90
2018-02-07T15:15:43.068Z,27.90
2018-02-07T15:18:11.554Z,28.10
2018-02-07T15:20:39.918Z,30.70
2018-02-07T15:23:08.552Z,27.17
2018-02-07T15:25:37.223Z,29.08
2018-02-07T15:28:05.522Z,28.92
2018-02-07T15:30:33.938Z,32.08
2018-02-07T15:33:02.246Z,28.27
2018-02-07T15:35:32.403Z,29.25
2018-02-07T15:38:01.964Z,28.02
2018-02-07T15:40:30.382Z,31.73
2018-02-07T15:42:58.745Z,28.87
2018-02-07T15:45:28.034Z,29.45
2018-02-07T15:47:56.377Z,29.40
2018-02-07T15:50:24.690Z,31.10
2018-02-07T15:52:53.836Z,29.10
2018-02-07T15:55:22.463Z,29.75
2018-02-07T15:57:52.347Z,29.83
2018-02-07T16:00:20.725Z,31.80
2018-02-07T16:02:49.516Z,29.55
2018-02-07T16:05:17.878Z,32.40
2018-02-07T16:07:46.196Z,33.05
2018-02-07T16:10:14.536Z,32.88
2018-02-07T16:12:42.852Z,29.90
2018-02-07T16:15:11.401Z,37.17
2018-02-07T16:17:39.879Z,30.92
2018-02-07T16:20:08.215Z,31.60
2018-02-07T16:22:36.560Z,33.33
2018-02-07T16:25:04.908Z,33.40
2018-02-07T16:27:33.233Z,32.30
2018-02-07T16:30:02.321Z,32.33
2018-02-07T16:32:31.438Z,29.10
2018-02-07T16:34:59.765Z,29.37
2018-02-07T16:37:28.117Z,30.37
2018-02-07T16:39:56.425Z,29.25
2018-02-07T16:42:24.995Z,29.60
2018-02-07T16:44:53.566Z,30.05
2018-02-07T16:47:21.890Z,30.08
2018-02-07T16:49:51.271Z,30.95
2018-02-07T16:52:19.830Z,31.23
2018-02-07T16:54:48.344Z,30.90
2018-02-07T16:57:17.728Z,30.52
2018-02-07T16:59:47.672Z,29.70
2018-02-07T17:02:16.218Z,29.30
2018-02-07T17:04:44.623Z,30.85
2018-02-07T17:07:13.808Z,28.75
2018-02-07T17:09:44.074Z,27.85
2018-02-07T17:12:12.417Z,30.73
2018-02-07T17:14:41.613Z,30.75
2018-02-07T17:17:10.872Z,32.00
2018-02-07T17:19:39.612Z,32.28
2018-02-07T17:22:08.044Z,31.37
2018-02-07T17:24:37.179Z,28.08
2018-02-07T17:27:06.275Z,33.05
2018-02-07T17:29:35.607Z,30.02
2018-02-07T17:32:03.996Z,31.33
2018-02-07T17:34:32.414Z,30.85
2018-02-07T17:37:01.435Z,31.98
2018-02-07T17:39:30.009Z,30.10
2018-02-07T17:41:58.842Z,30.15
2018-02-07T17:44:27.542Z,30.00
2018-02-07T17:47:03.097Z,29.33
2018-02-07T17:49:31.989Z,30.08
2018-02-07T17:52:01.014Z,29.00
2018-02-07T17:54:29.787Z,28.83
2018-02-07T17:56:58.670Z,27.40
2018-02-07T17:59:27.138Z,29.85
2018-02-07T18:01:56.808Z,26.65
2018-02-07T18:04:26.422Z,28.90
2018-02-07T18:06:55.088Z,27.70
2018-02-07T18:09:27.508Z,28.58
2018-02-07T18:11:56.399Z,28.55
2018-02-07T18:14:26.043Z,30.05
2018-02-07T18:16:54.823Z,31.65
2018-02-07T18:19:23.801Z,33.90
2018-02-07T18:21:53.330Z,30.58
2018-02-07T18:24:22.321Z,33.38
2018-02-07T18:26:51.121Z,35.80
2018-02-07T18:29:20.731Z,32.50
2018-02-07T18:31:49.463Z,32.42
2018-02-07T18:34:20.558Z,32.47
2018-02-07T18:36:49.112Z,33.95
2018-02-07T18:39:19.618Z,34.00
2018-02-07T18:41:48.508Z,31.95
2018-02-07T18:44:18.361Z,33.47
2018-02-07T18:46:47.251Z,34.03
2018-02-07T18:49:15.918Z,35.85
2018-02-07T18:51:44.720Z,35.05
2018-02-07T18:54:13.536Z,33.47
2018-02-07T18:56:42.095Z,32.05
2018-02-07T18:59:10.855Z,31.40
2018-02-07T19:01:39.908Z,32.80
2018-02-07T19:04:09.362Z,33.10
2018-02-07T19:06:39.033Z,31.92
2018-02-07T19:09:09.063Z,33.70
2018-02-07T19:11:38.442Z,34.47
2018-02-07T19:14:08.366Z,38.17
2018-02-07T19:16:38.232Z,39.25
2018-02-07T19:19:07.625Z,36.55
2018-02-07T19:21:36.626Z,35.33
2018-02-07T19:24:06.328Z,38.88
2018-02-07T19:26:35.128Z,38.80
2018-02-07T19:29:03.782Z,33.25
2018-02-07T19:31:33.144Z,32.25
2018-02-07T19:34:01.775Z,34.30
2018-02-07T19:36:30.389Z,36.90
2018-02-07T19:39:12.487Z,37.63
2018-02-07T19:41:41.229Z,38.88
2018-02-07T19:44:10.543Z,33.13
2018-02-07T19:46:39.496Z,31.37
2018-02-07T19:49:09.450Z,32.33
2018-02-07T19:51:39.513Z,31.12
2018-02-07T19:54:11.579Z,31.95
2018-02-07T19:56:40.959Z,32.05
2018-02-07T19:59:10.539Z,33.47
2018-02-07T20:01:40.591Z,33.58
2018-02-07T20:04:10.369Z,34.10
2018-02-07T20:06:38.926Z,32.35
2018-02-07T20:09:07.718Z,33.58
2018-02-07T20:11:37.544Z,35.30
2018-02-07T20:14:06.264Z,34.58
2018-02-07T20:16:35.090Z,30.05
2018-02-07T20:19:04.709Z,29.65
2018-02-07T20:21:33.295Z,29.52
2018-02-07T20:24:01.816Z,31.98
2018-02-07T20:26:31.214Z,33.15
2018-02-07T20:29:00.988Z,31.90
2018-02-07T20:31:29.657Z,32.72
2018-02-07T20:33:58.316Z,34.33
2018-02-07T20:36:26.923Z,32.25
2018-02-07T20:38:56.744Z,31.50
2018-02-07T20:41:25.741Z,33.10
2018-02-07T20:43:54.650Z,32.63
2018-02-07T20:46:23.457Z,31.83
2018-02-07T20:48:53.345Z,34.10
2018-02-07T20:51:22.096Z,33.08
2018-02-07T20:53:51.336Z,33.15
2018-02-07T20:56:19.970Z,34.50
2018-02-07T20:58:48.767Z,34.45
2018-02-07T21:01:18.309Z,34.33
2018-02-07T21:03:48.033Z,33.60
2018-02-07T21:06:17.121Z,34.90
2018-02-07T21:08:46.799Z,32.45
2018-02-07T21:11:15.664Z,34.80
2018-02-07T21:13:44.124Z,32.92
2018-02-07T21:16:13.652Z,36.78
2018-02-07T21:18:42.797Z,34.80
2018-02-07T21:21:11.365Z,31.98
2018-02-07T21:23:39.774Z,35.10
2018-02-07T21:26:08.301Z,35.67
2018-02-07T21:28:38.354Z,34.83
2018-02-07T21:31:06.726Z,34.95
2018-02-07T21:33:35.054Z,33.75
2018-02-07T21:36:04.636Z,35.90
2018-02-07T21:38:33.973Z,36.88
2018-02-07T21:41:03.056Z,36.35
2018-02-07T21:43:32.194Z,34.53
2018-02-07T21:46:00.566Z,35.40
2018-02-07T21:48:29.048Z,38.05
2018-02-07T21:50:57.385Z,35.47
2018-02-07T21:53:26.701Z,38.03
2018-02-07T21:55:55.163Z,39.00
2018-02-07T21:58:24.347Z,40.40
2018-02-07T22:00:55.103Z,40.50
2018-02-07T22:03:24.217Z,40.10
2018-02-07T22:05:52.654Z,39.60
2018-02-07T22:08:21.142Z,38.85
2018-02-07T22:10:49.551Z,39.08
2018-02-07T22:13:18.128Z,39.17
2018-02-07T22:15:46.467Z,39.20
2018-02-07T22:18:14.793Z,41.60
2018-02-07T22:20:43.173Z,39.05
2018-02-07T22:23:11.524Z,40.38
2018-02-07T22:25:40.658Z,38.90
2018-02-07T22:28:10.712Z,40.38
2018-02-07T22:30:39.817Z,40.35
2018-02-07T22:33:08.916Z,38.55
2018-02-07T22:35:38.122Z,39.28
2018-02-07T22:38:07.208Z,39.30
2018-02-07T22:40:36.456Z,40.53
2018-02-07T22:43:04.789Z,35.55
2018-02-07T22:45:33.957Z,40.92
2018-02-07T22:48:03.071Z,41.00
2018-02-07T22:50:32.223Z,42.65
2018-02-07T22:53:00.817Z,41.17
2018-02-07T22:55:29.223Z,40.65
2018-02-07T22:57:58.391Z,41.90
2018-02-07T23:00:26.906Z,41.15
2018-02-07T23:02:56.046Z,41.13
2018-02-07T23:05:24.398Z,40.80
2018-02-07T23:07:53.550Z,39.45
2018-02-07T23:10:21.966Z,38.90
2018-02-07T23:12:50.303Z,41.88
2018-02-07T23:15:18.675Z,40.40
2018-02-07T23:17:47.024Z,39.55
2018-02-07T23:20:15.369Z,41.50
2018-02-07T23:22:43.716Z,39.72
2018-02-07T23:25:12.801Z,42.75
2018-02-07T23:27:41.218Z,41.50
2018-02-07T23:30:09.553Z,41.47
2018-02-07T23:32:37.959Z,43.15
2018-02-07T23:35:07.051Z,38.33
2018-02-07T23:37:36.433Z,41.85
2018-02-07T23:40:04.727Z,40.97
2018-02-07T23:42:33.819Z,39.30
2018-02-07T23:45:02.165Z,39.75
2018-02-07T23:47:30.534Z,40.67
2018-02-07T23:49:58.840Z,38.80
2018-02-07T23:52:27.650Z,43.67
2018-02-07T23:54:56.078Z,41.63
2018-02-07T23:57:25.193Z,41.47
2018-02-07T23:59:53.509Z,42.70
